sensor_id;sensor_type;location;lat;lon;timestamp;temperature;humidity
44435;DHT22;30138;20.964;105.830;2023-02-18T00:00:34;21.90;99.90
44435;DHT22;30138;20.964;105.830;2023-02-18T00:05:43;21.90;99.90
44435;DHT22;30138;20.964;105.830;2023-02-18T00:10:51;21.90;99.90
44435;DHT22;30138;20.964;105.830;2023-02-18T00:16:01;21.90;99.90
44435;DHT22;30138;20.964;105.830;2023-02-18T00:21:09;21.90;99.90
44435;DHT22;30138;20.964;105.830;2023-02-18T00:26:18;21.90;99.90
44435;DHT22;30138;20.964;105.830;2023-02-18T00:31:27;21.90;99.90
44435;DHT22;30138;20.964;105.830;2023-02-18T00:36:37;21.90;99.90
44435;DHT22;30138;20.964;105.830;2023-02-18T00:41:45;21.90;99.90
44435;DHT22;30138;20.964;105.830;2023-02-18T00:46:52;21.90;99.90
44435;DHT22;30138;20.964;105.830;2023-02-18T00:51:59;21.90;99.90
44435;DHT22;30138;20.964;105.830;2023-02-18T00:57:07;21.90;99.90
44435;DHT22;30138;20.964;105.830;2023-02-18T01:02:14;21.90;99.90
44435;DHT22;30138;20.964;105.830;2023-02-18T01:07:21;22.00;99.90
44435;DHT22;30138;20.964;105.830;2023-02-18T01:12:31;22.10;99.90
44435;DHT22;30138;20.964;105.830;2023-02-18T01:17:38;22.10;99.90
44435;DHT22;30138;20.964;105.830;2023-02-18T01:22:47;22.10;99.90
44435;DHT22;30138;20.964;105.830;2023-02-18T01:27:56;22.10;99.90
44435;DHT22;30138;20.964;105.830;2023-02-18T01:33:02;22.10;99.90
44435;DHT22;30138;20.964;105.830;2023-02-18T01:38:09;22.10;99.90
44435;DHT22;30138;20.964;105.830;2023-02-18T01:43:18;22.10;99.90
44435;DHT22;30138;20.964;105.830;2023-02-18T01:48:28;22.10;99.90
44435;DHT22;30138;20.964;105.830;2023-02-18T01:53:41;22.00;99.90
44435;DHT22;30138;20.964;105.830;2023-02-18T01:58:54;22.10;99.90
44435;DHT22;30138;20.964;105.830;2023-02-18T02:04:04;22.10;99.90
44435;DHT22;30138;20.964;105.830;2023-02-18T02:09:12;22.20;99.90
44435;DHT22;30138;20.964;105.830;2023-02-18T02:38:37;22.60;99.90
44435;DHT22;30138;20.964;105.830;2023-02-18T02:43:55;22.70;99.90
44435;DHT22;30138;20.964;105.830;2023-02-18T02:49:14;22.70;99.90
44435;DHT22;30138;20.964;105.830;2023-02-18T02:54:33;22.80;99.90
44435;DHT22;30138;20.964;105.830;2023-02-18T02:59:43;22.90;99.90
44435;DHT22;30138;20.964;105.830;2023-02-18T03:05:05;22.90;99.90
44435;DHT22;30138;20.964;105.830;2023-02-18T03:10:38;22.90;99.90
44435;DHT22;30138;20.964;105.830;2023-02-18T03:15:55;22.80;99.90
44435;DHT22;30138;20.964;105.830;2023-02-18T03:21:07;22.80;99.90
44435;DHT22;30138;20.964;105.830;2023-02-18T03:26:18;22.80;99.90
44435;DHT22;30138;20.964;105.830;2023-02-18T03:31:27;22.70;99.90
44435;DHT22;30138;20.964;105.830;2023-02-18T03:36:38;22.80;99.90
44435;DHT22;30138;20.964;105.830;2023-02-18T03:41:47;22.70;99.90
44435;DHT22;30138;20.964;105.830;2023-02-18T03:46:54;22.70;99.90
44435;DHT22;30138;20.964;105.830;2023-02-18T03:52:01;22.70;99.90
44435;DHT22;30138;20.964;105.830;2023-02-18T03:57:12;22.70;99.90
44435;DHT22;30138;20.964;105.830;2023-02-18T04:02:18;22.70;99.90
44435;DHT22;30138;20.964;105.830;2023-02-18T04:07:26;22.70;99.90
44435;DHT22;30138;20.964;105.830;2023-02-18T04:12:34;22.70;99.90
44435;DHT22;30138;20.964;105.830;2023-02-18T04:17:41;22.70;99.90
44435;DHT22;30138;20.964;105.830;2023-02-18T04:22:48;22.70;99.90
44435;DHT22;30138;20.964;105.830;2023-02-18T04:27:57;22.80;99.90
44435;DHT22;30138;20.964;105.830;2023-02-18T04:33:04;22.80;99.90
44435;DHT22;30138;20.964;105.830;2023-02-18T04:38:11;22.80;99.90
44435;DHT22;30138;20.964;105.830;2023-02-18T04:43:20;22.80;99.90
44435;DHT22;30138;20.964;105.830;2023-02-18T04:48:26;22.80;99.90
44435;DHT22;30138;20.964;105.830;2023-02-18T04:53:34;22.80;99.90
44435;DHT22;30138;20.964;105.830;2023-02-18T04:58:44;22.90;99.90
44435;DHT22;30138;20.964;105.830;2023-02-18T05:03:51;22.90;99.90
44435;DHT22;30138;20.964;105.830;2023-02-18T05:08:58;22.90;99.90
44435;DHT22;30138;20.964;105.830;2023-02-18T05:14:06;22.90;99.90
44435;DHT22;30138;20.964;105.830;2023-02-18T05:19:14;22.90;99.90
44435;DHT22;30138;20.964;105.830;2023-02-18T05:24:21;23.00;99.90
44435;DHT22;30138;20.964;105.830;2023-02-18T05:29:29;23.00;99.90
44435;DHT22;30138;20.964;105.830;2023-02-18T05:34:36;23.00;99.90
44435;DHT22;30138;20.964;105.830;2023-02-18T05:39:43;23.10;99.90
44435;DHT22;30138;20.964;105.830;2023-02-18T05:44:51;23.10;99.90
44435;DHT22;30138;20.964;105.830;2023-02-18T05:50:01;23.10;99.90
44435;DHT22;30138;20.964;105.830;2023-02-18T05:55:08;23.10;99.90
44435;DHT22;30138;20.964;105.830;2023-02-18T06:00:18;23.20;99.90
44435;DHT22;30138;20.964;105.830;2023-02-18T06:05:25;23.20;99.90
44435;DHT22;30138;20.964;105.830;2023-02-18T06:10:32;23.20;99.90
44435;DHT22;30138;20.964;105.830;2023-02-18T06:15:40;23.30;99.90
44435;DHT22;30138;20.964;105.830;2023-02-18T06:20:47;23.30;99.90
44435;DHT22;30138;20.964;105.830;2023-02-18T06:25:54;23.30;99.90
44435;DHT22;30138;20.964;105.830;2023-02-18T06:31:03;23.30;99.90
44435;DHT22;30138;20.964;105.830;2023-02-18T06:36:11;23.30;99.90
44435;DHT22;30138;20.964;105.830;2023-02-18T06:41:19;23.40;99.90
44435;DHT22;30138;20.964;105.830;2023-02-18T06:46:27;23.40;99.90
44435;DHT22;30138;20.964;105.830;2023-02-18T06:51:34;23.50;99.90
44435;DHT22;30138;20.964;105.830;2023-02-18T06:56:41;23.50;99.90
44435;DHT22;30138;20.964;105.830;2023-02-18T07:01:50;23.60;99.90
44435;DHT22;30138;20.964;105.830;2023-02-18T07:06:57;23.50;99.90
44435;DHT22;30138;20.964;105.830;2023-02-18T07:12:03;23.50;99.90
44435;DHT22;30138;20.964;105.830;2023-02-18T07:17:12;23.60;99.90
44435;DHT22;30138;20.964;105.830;2023-02-18T07:22:19;23.50;99.90
44435;DHT22;30138;20.964;105.830;2023-02-18T07:27:26;23.50;99.90
44435;DHT22;30138;20.964;105.830;2023-02-18T07:32:35;23.50;99.90
44435;DHT22;30138;20.964;105.830;2023-02-18T07:37:44;23.60;99.90
44435;DHT22;30138;20.964;105.830;2023-02-18T07:42:51;23.50;99.90
44435;DHT22;30138;20.964;105.830;2023-02-18T07:48:00;23.50;99.90
44435;DHT22;30138;20.964;105.830;2023-02-18T07:53:07;23.50;99.90
44435;DHT22;30138;20.964;105.830;2023-02-18T07:58:15;23.50;99.90
44435;DHT22;30138;20.964;105.830;2023-02-18T08:03:26;23.50;99.90
44435;DHT22;30138;20.964;105.830;2023-02-18T08:08:35;23.50;99.90
44435;DHT22;30138;20.964;105.830;2023-02-18T08:13:42;23.50;99.90
44435;DHT22;30138;20.964;105.830;2023-02-18T08:18:51;23.40;99.90
44435;DHT22;30138;20.964;105.830;2023-02-18T08:23:58;23.40;99.90
44435;DHT22;30138;20.964;105.830;2023-02-18T08:29:06;23.40;99.90
44435;DHT22;30138;20.964;105.830;2023-02-18T08:34:15;23.50;99.90
44435;DHT22;30138;20.964;105.830;2023-02-18T08:39:22;23.40;99.90
44435;DHT22;30138;20.964;105.830;2023-02-18T08:44:29;23.40;99.90
44435;DHT22;30138;20.964;105.830;2023-02-18T08:49:37;23.40;99.90
44435;DHT22;30138;20.964;105.830;2023-02-18T08:54:44;23.40;99.90
44435;DHT22;30138;20.964;105.830;2023-02-18T08:59:50;23.40;99.90
44435;DHT22;30138;20.964;105.830;2023-02-18T09:04:59;23.40;99.90
44435;DHT22;30138;20.964;105.830;2023-02-18T09:10:06;23.40;99.90
44435;DHT22;30138;20.964;105.830;2023-02-18T09:15:13;23.40;99.90
44435;DHT22;30138;20.964;105.830;2023-02-18T09:20:22;23.40;99.90
44435;DHT22;30138;20.964;105.830;2023-02-18T09:25:28;23.40;99.90
44435;DHT22;30138;20.964;105.830;2023-02-18T09:30:35;23.40;99.90
44435;DHT22;30138;20.964;105.830;2023-02-18T09:35:46;23.50;99.90
44435;DHT22;30138;20.964;105.830;2023-02-18T09:40:54;23.40;99.90
44435;DHT22;30138;20.964;105.830;2023-02-18T09:46:04;23.40;99.90
44435;DHT22;30138;20.964;105.830;2023-02-18T09:51:24;23.50;99.90
44435;DHT22;30138;20.964;105.830;2023-02-18T09:56:32;23.50;99.90
44435;DHT22;30138;20.964;105.830;2023-02-18T10:01:41;23.50;99.90
44435;DHT22;30138;20.964;105.830;2023-02-18T10:06:51;23.60;99.90
44435;DHT22;30138;20.964;105.830;2023-02-18T10:12:01;23.60;99.90
44435;DHT22;30138;20.964;105.830;2023-02-18T10:17:17;23.60;99.90
44435;DHT22;30138;20.964;105.830;2023-02-18T10:22:27;23.70;99.90
44435;DHT22;30138;20.964;105.830;2023-02-18T10:27:34;23.70;99.90
44435;DHT22;30138;20.964;105.830;2023-02-18T10:32:43;23.80;99.90
44435;DHT22;30138;20.964;105.830;2023-02-18T10:38:03;23.80;99.90
44435;DHT22;30138;20.964;105.830;2023-02-18T10:43:22;23.90;99.90
44435;DHT22;30138;20.964;105.830;2023-02-18T10:48:43;23.90;99.90
44435;DHT22;30138;20.964;105.830;2023-02-18T10:54:00;23.90;99.90
44435;DHT22;30138;20.964;105.830;2023-02-18T10:59:12;23.90;99.90
44435;DHT22;30138;20.964;105.830;2023-02-18T11:04:27;23.90;99.90
44435;DHT22;30138;20.964;105.830;2023-02-18T11:09:46;23.90;99.90
44435;DHT22;30138;20.964;105.830;2023-02-18T11:15:15;23.90;99.90
44435;DHT22;30138;20.964;105.830;2023-02-18T11:20:31;23.90;99.90
44435;DHT22;30138;20.964;105.830;2023-02-18T11:25:51;24.00;99.90
44435;DHT22;30138;20.964;105.830;2023-02-18T11:31:02;24.00;99.90
44435;DHT22;30138;20.964;105.830;2023-02-18T11:36:20;24.00;99.90
44435;DHT22;30138;20.964;105.830;2023-02-18T11:41:36;24.00;99.90
44435;DHT22;30138;20.964;105.830;2023-02-18T11:46:56;24.10;99.90
44435;DHT22;30138;20.964;105.830;2023-02-18T11:52:13;24.00;99.90
44435;DHT22;30138;20.964;105.830;2023-02-18T11:57:29;24.00;99.90
44435;DHT22;30138;20.964;105.830;2023-02-18T12:02:38;24.00;99.90
44435;DHT22;30138;20.964;105.830;2023-02-18T12:08:00;24.00;99.90
44435;DHT22;30138;20.964;105.830;2023-02-18T12:13:26;24.00;99.90
44435;DHT22;30138;20.964;105.830;2023-02-18T12:19:03;24.00;99.90
44435;DHT22;30138;20.964;105.830;2023-02-18T12:24:36;24.00;99.90
44435;DHT22;30138;20.964;105.830;2023-02-18T12:30:25;24.00;99.90
44435;DHT22;30138;20.964;105.830;2023-02-18T12:35:54;23.90;99.90
44435;DHT22;30138;20.964;105.830;2023-02-18T12:41:19;24.00;99.90
44435;DHT22;30138;20.964;105.830;2023-02-18T12:52:45;23.90;99.90
44435;DHT22;30138;20.964;105.830;2023-02-18T12:58:08;23.90;99.90
44435;DHT22;30138;20.964;105.830;2023-02-18T13:09:37;23.80;99.90
44435;DHT22;30138;20.964;105.830;2023-02-18T13:14:57;23.80;99.90
44435;DHT22;30138;20.964;105.830;2023-02-18T13:20:16;23.80;99.90
44435;DHT22;30138;20.964;105.830;2023-02-18T13:25:28;23.80;99.90
44435;DHT22;30138;20.964;105.830;2023-02-18T13:30:42;23.80;99.90
44435;DHT22;30138;20.964;105.830;2023-02-18T13:35:59;23.80;99.90
44435;DHT22;30138;20.964;105.830;2023-02-18T13:41:13;23.80;99.90
44435;DHT22;30138;20.964;105.830;2023-02-18T13:46:21;23.80;99.90
44435;DHT22;30138;20.964;105.830;2023-02-18T13:51:31;23.80;99.90
44435;DHT22;30138;20.964;105.830;2023-02-18T13:57:25;23.80;99.90
44435;DHT22;30138;20.964;105.830;2023-02-18T14:03:54;23.80;99.90
44435;DHT22;30138;20.964;105.830;2023-02-18T14:14:45;23.80;99.90
44435;DHT22;30138;20.964;105.830;2023-02-18T14:19:54;23.80;99.90
44435;DHT22;30138;20.964;105.830;2023-02-18T14:25:13;23.80;99.90
44435;DHT22;30138;20.964;105.830;2023-02-18T14:30:30;23.80;99.90
44435;DHT22;30138;20.964;105.830;2023-02-18T14:35:49;23.80;99.90
44435;DHT22;30138;20.964;105.830;2023-02-18T14:41:35;23.90;99.90
44435;DHT22;30138;20.964;105.830;2023-02-18T14:47:01;23.90;99.90
44435;DHT22;30138;20.964;105.830;2023-02-18T14:52:22;23.80;99.90
44435;DHT22;30138;20.964;105.830;2023-02-18T14:57:38;23.90;99.90
44435;DHT22;30138;20.964;105.830;2023-02-18T15:02:53;23.90;99.90
44435;DHT22;30138;20.964;105.830;2023-02-18T15:08:01;23.90;99.90
44435;DHT22;30138;20.964;105.830;2023-02-18T15:13:15;23.80;99.90
44435;DHT22;30138;20.964;105.830;2023-02-18T15:18:30;23.80;99.90
44435;DHT22;30138;20.964;105.830;2023-02-18T15:23:40;23.80;99.90
44435;DHT22;30138;20.964;105.830;2023-02-18T15:28:55;23.80;99.90
44435;DHT22;30138;20.964;105.830;2023-02-18T15:34:28;23.80;99.90
44435;DHT22;30138;20.964;105.830;2023-02-18T15:39:38;23.90;99.90
44435;DHT22;30138;20.964;105.830;2023-02-18T15:44:49;23.90;99.90
44435;DHT22;30138;20.964;105.830;2023-02-18T15:50:00;23.90;99.90
44435;DHT22;30138;20.964;105.830;2023-02-18T15:55:12;23.90;99.90
44435;DHT22;30138;20.964;105.830;2023-02-18T16:00:32;23.90;99.90
44435;DHT22;30138;20.964;105.830;2023-02-18T16:05:43;24.00;99.90
44435;DHT22;30138;20.964;105.830;2023-02-18T16:10:52;24.00;99.90
44435;DHT22;30138;20.964;105.830;2023-02-18T16:16:01;24.00;99.90
44435;DHT22;30138;20.964;105.830;2023-02-18T16:21:28;24.00;99.90
44435;DHT22;30138;20.964;105.830;2023-02-18T16:26:42;24.00;99.90
44435;DHT22;30138;20.964;105.830;2023-02-18T16:31:49;24.10;99.90
44435;DHT22;30138;20.964;105.830;2023-02-18T16:36:58;24.00;99.90
44435;DHT22;30138;20.964;105.830;2023-02-18T16:42:22;24.10;99.90
44435;DHT22;30138;20.964;105.830;2023-02-18T16:47:29;24.10;99.90
44435;DHT22;30138;20.964;105.830;2023-02-18T16:53:15;24.20;99.90
44435;DHT22;30138;20.964;105.830;2023-02-18T16:58:22;24.20;99.90
44435;DHT22;30138;20.964;105.830;2023-02-18T17:03:29;24.20;99.90
44435;DHT22;30138;20.964;105.830;2023-02-18T17:08:38;24.20;99.90
44435;DHT22;30138;20.964;105.830;2023-02-18T17:13:45;24.20;99.90
44435;DHT22;30138;20.964;105.830;2023-02-18T17:18:52;24.20;99.90
44435;DHT22;30138;20.964;105.830;2023-02-18T17:24:00;24.20;99.90
44435;DHT22;30138;20.964;105.830;2023-02-18T17:29:08;24.20;99.90
44435;DHT22;30138;20.964;105.830;2023-02-18T17:34:17;24.20;99.90
44435;DHT22;30138;20.964;105.830;2023-02-18T17:39:28;24.20;99.90
44435;DHT22;30138;20.964;105.830;2023-02-18T17:44:35;24.10;99.90
44435;DHT22;30138;20.964;105.830;2023-02-18T17:49:41;24.00;99.90
44435;DHT22;30138;20.964;105.830;2023-02-18T17:54:50;24.00;99.90
44435;DHT22;30138;20.964;105.830;2023-02-18T17:59:56;23.90;99.90
44435;DHT22;30138;20.964;105.830;2023-02-18T18:05:19;23.90;99.90
44435;DHT22;30138;20.964;105.830;2023-02-18T18:10:32;23.90;99.90
44435;DHT22;30138;20.964;105.830;2023-02-18T18:15:40;23.80;99.90
44435;DHT22;30138;20.964;105.830;2023-02-18T18:20:50;23.80;99.90
44435;DHT22;30138;20.964;105.830;2023-02-18T18:26:03;23.70;99.90
44435;DHT22;30138;20.964;105.830;2023-02-18T18:31:13;23.70;99.90
44435;DHT22;30138;20.964;105.830;2023-02-18T18:36:22;23.70;99.90
44435;DHT22;30138;20.964;105.830;2023-02-18T18:41:30;23.70;99.90
44435;DHT22;30138;20.964;105.830;2023-02-18T18:46:37;23.70;99.90
44435;DHT22;30138;20.964;105.830;2023-02-18T18:51:43;23.70;99.90
44435;DHT22;30138;20.964;105.830;2023-02-18T18:56:52;23.60;99.90
44435;DHT22;30138;20.964;105.830;2023-02-18T19:01:59;23.60;99.90
44435;DHT22;30138;20.964;105.830;2023-02-18T19:07:06;23.60;99.90
44435;DHT22;30138;20.964;105.830;2023-02-18T19:12:14;23.60;99.90
44435;DHT22;30138;20.964;105.830;2023-02-18T19:17:21;23.60;99.90
44435;DHT22;30138;20.964;105.830;2023-02-18T19:22:28;23.60;99.90
44435;DHT22;30138;20.964;105.830;2023-02-18T19:27:39;23.50;99.90
44435;DHT22;30138;20.964;105.830;2023-02-18T19:32:47;23.50;99.90
44435;DHT22;30138;20.964;105.830;2023-02-18T19:37:55;23.50;99.90
44435;DHT22;30138;20.964;105.830;2023-02-18T19:43:04;23.50;99.90
44435;DHT22;30138;20.964;105.830;2023-02-18T19:48:12;23.50;99.90
44435;DHT22;30138;20.964;105.830;2023-02-18T19:53:20;23.50;99.90
44435;DHT22;30138;20.964;105.830;2023-02-18T20:04:01;23.50;99.90
44435;DHT22;30138;20.964;105.830;2023-02-18T20:09:07;23.50;99.90
44435;DHT22;30138;20.964;105.830;2023-02-18T20:14:16;23.40;99.90
44435;DHT22;30138;20.964;105.830;2023-02-18T20:19:24;23.50;99.90
44435;DHT22;30138;20.964;105.830;2023-02-18T20:24:33;23.40;99.90
44435;DHT22;30138;20.964;105.830;2023-02-18T20:29:43;23.40;99.90
44435;DHT22;30138;20.964;105.830;2023-02-18T20:34:50;23.40;99.90
44435;DHT22;30138;20.964;105.830;2023-02-18T20:39:58;23.40;99.90
44435;DHT22;30138;20.964;105.830;2023-02-18T20:45:07;23.40;99.90
44435;DHT22;30138;20.964;105.830;2023-02-18T20:50:13;23.40;99.90
44435;DHT22;30138;20.964;105.830;2023-02-18T20:55:24;23.40;99.90
44435;DHT22;30138;20.964;105.830;2023-02-18T21:00:32;23.40;99.90
44435;DHT22;30138;20.964;105.830;2023-02-18T21:05:39;23.40;99.90
44435;DHT22;30138;20.964;105.830;2023-02-18T21:10:46;23.40;99.90
44435;DHT22;30138;20.964;105.830;2023-02-18T21:15:55;23.40;99.90
44435;DHT22;30138;20.964;105.830;2023-02-18T21:21:02;23.40;99.90
44435;DHT22;30138;20.964;105.830;2023-02-18T21:26:11;23.30;99.90
44435;DHT22;30138;20.964;105.830;2023-02-18T21:31:21;23.30;99.90
44435;DHT22;30138;20.964;105.830;2023-02-18T21:36:30;23.30;99.90
44435;DHT22;30138;20.964;105.830;2023-02-18T21:41:41;23.30;99.90
44435;DHT22;30138;20.964;105.830;2023-02-18T21:46:49;23.30;99.90
44435;DHT22;30138;20.964;105.830;2023-02-18T21:51:56;23.30;99.90
44435;DHT22;30138;20.964;105.830;2023-02-18T21:57:05;23.30;99.90
44435;DHT22;30138;20.964;105.830;2023-02-18T22:02:15;23.30;99.90
44435;DHT22;30138;20.964;105.830;2023-02-18T22:07:27;23.30;99.90
44435;DHT22;30138;20.964;105.830;2023-02-18T22:12:33;23.30;99.90
44435;DHT22;30138;20.964;105.830;2023-02-18T22:17:44;23.30;99.90
44435;DHT22;30138;20.964;105.830;2023-02-18T22:22:53;23.30;99.90
44435;DHT22;30138;20.964;105.830;2023-02-18T22:28:00;23.30;99.90
44435;DHT22;30138;20.964;105.830;2023-02-18T22:33:09;23.30;99.90
44435;DHT22;30138;20.964;105.830;2023-02-18T22:38:15;23.30;99.90
44435;DHT22;30138;20.964;105.830;2023-02-18T22:43:21;23.30;99.90
44435;DHT22;30138;20.964;105.830;2023-02-18T22:48:32;23.30;99.90
44435;DHT22;30138;20.964;105.830;2023-02-18T22:53:42;23.30;99.90
44435;DHT22;30138;20.964;105.830;2023-02-18T22:58:50;23.30;99.90
44435;DHT22;30138;20.964;105.830;2023-02-18T23:04:04;23.30;99.90
44435;DHT22;30138;20.964;105.830;2023-02-18T23:09:13;23.20;99.90
44435;DHT22;30138;20.964;105.830;2023-02-18T23:14:22;23.20;99.90
44435;DHT22;30138;20.964;105.830;2023-02-18T23:19:32;23.20;99.90
44435;DHT22;30138;20.964;105.830;2023-02-18T23:24:41;23.20;99.90
44435;DHT22;30138;20.964;105.830;2023-02-18T23:30:01;23.20;99.90
44435;DHT22;30138;20.964;105.830;2023-02-18T23:35:10;23.20;99.90
44435;DHT22;30138;20.964;105.830;2023-02-18T23:40:17;23.20;99.90
44435;DHT22;30138;20.964;105.830;2023-02-18T23:45:24;23.20;99.90
44435;DHT22;30138;20.964;105.830;2023-02-18T23:50:33;23.20;99.90
44435;DHT22;30138;20.964;105.830;2023-02-18T23:55:39;23.20;99.90
